createdAt,value
2017-09-05T04:41:35.695Z,99.90
2017-09-05T04:44:03.571Z,99.90
2017-09-05T04:46:31.427Z,99.90
2017-09-05T04:48:59.044Z,99.90
2017-09-05T04:51:27.755Z,99.90
2017-09-05T04:53:55.315Z,99.90
2017-09-05T04:56:23.088Z,99.90
2017-09-05T04:58:51.043Z,99.90
2017-09-05T05:40:10.615Z,87.10
2017-09-05T05:42:39.450Z,86.50
2017-09-05T05:50:27.444Z,92.40
2017-09-05T05:52:59.523Z,93.70
2017-09-05T06:44:16.165Z,31.10
2017-09-05T06:46:43.699Z,26.70
2017-09-05T06:49:11.785Z,28.60
2017-09-05T06:51:39.541Z,25.00
2017-09-05T06:54:07.147Z,26.60
2017-09-05T06:56:34.759Z,28.00
2017-09-05T06:59:02.318Z,32.70
2017-09-05T07:01:29.982Z,39.10
2017-09-05T07:03:57.642Z,29.60
2017-09-05T07:06:25.431Z,26.00
2017-09-05T07:08:53.136Z,33.10
2017-09-05T07:11:20.706Z,41.80
2017-09-05T07:13:48.330Z,36.80
2017-09-05T07:16:15.871Z,34.00
2017-09-05T07:18:43.488Z,35.50
2017-09-05T07:21:11.059Z,33.50
2017-09-05T07:23:38.642Z,35.60
2017-09-05T07:26:06.171Z,40.00
2017-09-05T07:28:33.803Z,43.70
2017-09-05T07:31:01.523Z,34.00
2017-09-05T07:33:29.164Z,28.90
2017-09-05T07:35:56.688Z,26.00
2017-09-05T07:38:24.231Z,21.50
2017-09-05T07:40:51.757Z,21.70
2017-09-05T07:43:19.307Z,14.70
2017-09-05T07:45:46.879Z,16.00
2017-09-05T07:48:14.916Z,16.90
2017-09-05T07:50:42.759Z,15.60
2017-09-05T07:53:10.414Z,15.80
2017-09-05T07:55:41.165Z,16.30
2017-09-05T07:58:09.011Z,15.00
2017-09-05T08:00:36.690Z,16.70
2017-09-05T08:03:04.338Z,15.10
2017-09-05T08:05:31.950Z,15.90
2017-09-05T08:08:01.308Z,12.60
2017-09-05T08:10:28.997Z,13.80
2017-09-05T08:12:56.799Z,18.40
2017-09-05T08:15:24.429Z,13.00
2017-09-05T08:17:52.126Z,13.90
2017-09-05T08:20:20.342Z,18.30
2017-09-05T08:22:47.986Z,13.30
2017-09-05T08:25:19.200Z,14.20
2017-09-05T08:27:46.776Z,14.10
2017-09-05T08:30:14.362Z,11.70
2017-09-05T08:32:45.590Z,18.40
2017-09-05T08:35:13.458Z,16.10
2017-09-05T08:37:41.090Z,14.50
2017-09-05T08:40:13.428Z,11.90
2017-09-05T08:42:43.155Z,14.20
2017-09-05T08:45:10.771Z,15.50
2017-09-05T08:47:38.311Z,16.50
2017-09-05T13:33:29.100Z,49.90
2017-09-05T14:08:31.568Z,45.20
2017-09-05T14:13:49.740Z,58.80
2017-09-05T14:16:23.687Z,58.90
2017-09-05T14:18:59.083Z,58.00
2017-09-05T14:21:27.277Z,62.20
2017-09-05T14:23:56.813Z,27.90
2017-09-05T14:26:25.674Z,45.60
2017-09-05T14:28:55.398Z,42.70
2017-09-05T14:31:29.030Z,40.90
2017-09-05T14:34:01.850Z,30.80
2017-09-05T14:36:30.222Z,32.60
2017-09-05T14:38:59.663Z,37.70
2017-09-05T14:41:35.853Z,36.10
2017-09-05T14:46:47.138Z,43.00
2017-09-05T14:49:25.066Z,43.20
2017-09-05T14:54:42.542Z,41.00
2017-09-05T14:57:28.897Z,34.60
2017-09-05T15:02:47.560Z,39.40
2017-09-05T15:10:49.983Z,41.90
2017-09-05T15:13:23.686Z,52.00
2017-09-05T15:16:00.403Z,43.60
2017-09-05T15:21:24.796Z,40.20
2017-09-05T15:23:58.223Z,48.80
2017-09-05T15:29:29.074Z,51.60
2017-09-05T15:32:16.093Z,55.30
2017-09-05T15:35:05.098Z,57.20
2017-09-05T15:40:32.181Z,54.30
2017-09-05T15:43:30.478Z,54.00
2017-09-05T15:46:11.340Z,58.60
2017-09-05T15:51:29.066Z,60.30
2017-09-05T15:59:26.911Z,71.80
2017-09-05T16:05:19.518Z,75.80
2017-09-05T16:07:56.265Z,72.30
2017-09-05T16:13:31.335Z,79.30
2017-09-05T16:16:06.976Z,78.10
2017-09-05T16:18:37.223Z,78.90
2017-09-05T16:21:10.722Z,84.10
2017-09-05T16:23:41.200Z,89.50
2017-09-05T16:26:16.631Z,91.20
2017-09-05T16:28:53.435Z,90.60
2017-09-05T16:31:33.517Z,90.30
2017-09-05T16:34:09.418Z,92.30
